createdAt,value
2018-08-31T00:01:01.959Z,15.17
2018-08-31T00:06:15.581Z,15.08
2018-08-31T00:11:28.297Z,15.01
2018-08-31T00:16:30.481Z,14.98
2018-08-31T00:21:32.578Z,14.98
2018-08-31T00:26:46.445Z,15.07
2018-08-31T00:32:03.658Z,15.15
2018-08-31T00:39:19.716Z,15.15
2018-08-31T00:44:32.262Z,15.16
2018-08-31T00:49:34.391Z,15.13
2018-08-31T00:54:36.566Z,15.14
2018-08-31T00:59:38.689Z,15.14
2018-08-31T01:04:41.001Z,15.15
2018-08-31T01:09:43.133Z,15.09
2018-08-31T01:14:45.306Z,15.09
2018-08-31T01:19:47.406Z,15.02
2018-08-31T01:24:49.548Z,15.03
2018-08-31T01:29:52.019Z,15.00
2018-08-31T01:34:54.179Z,14.97
2018-08-31T01:39:56.351Z,14.97
2018-08-31T01:44:58.535Z,14.86
2018-08-31T01:50:00.886Z,14.79
2018-08-31T01:55:03.041Z,14.78
2018-08-31T02:00:05.219Z,14.77
2018-08-31T02:05:07.376Z,14.79
2018-08-31T02:10:09.534Z,14.77
2018-08-31T02:15:11.707Z,14.75
2018-08-31T02:20:13.831Z,14.71
2018-08-31T02:25:15.964Z,14.67
2018-08-31T02:30:18.086Z,14.68
2018-08-31T02:35:20.230Z,14.63
2018-08-31T02:40:22.375Z,14.64
2018-08-31T02:45:24.885Z,14.58
2018-08-31T02:50:27.019Z,14.53
2018-08-31T02:55:29.135Z,14.49
2018-08-31T03:00:31.274Z,14.48
2018-08-31T03:05:33.369Z,14.51
2018-08-31T03:10:35.508Z,14.45
2018-08-31T03:15:37.693Z,14.42
2018-08-31T03:20:39.799Z,14.42
2018-08-31T03:25:41.924Z,14.36
2018-08-31T03:30:44.041Z,14.34
2018-08-31T03:35:46.168Z,14.30
2018-08-31T03:40:48.291Z,14.27
2018-08-31T03:45:50.410Z,14.27
2018-08-31T03:50:52.645Z,14.32
2018-08-31T03:55:54.696Z,14.36
2018-08-31T04:00:56.849Z,14.37
2018-08-31T04:05:58.970Z,14.37
2018-08-31T04:11:01.098Z,14.41
2018-08-31T04:16:03.268Z,14.42
2018-08-31T04:21:05.395Z,14.48
2018-08-31T04:26:07.494Z,14.64
2018-08-31T04:31:09.625Z,14.67
2018-08-31T04:36:11.721Z,14.67
2018-08-31T04:41:13.888Z,14.72
2018-08-31T04:46:15.991Z,14.77
2018-08-31T04:51:18.240Z,14.79
2018-08-31T04:56:20.355Z,14.83
2018-08-31T05:01:22.709Z,14.83
2018-08-31T05:06:24.827Z,14.89
2018-08-31T05:11:27.094Z,14.92
2018-08-31T05:16:29.253Z,14.97
2018-08-31T05:21:31.438Z,15.09
2018-08-31T05:26:33.585Z,15.09
2018-08-31T05:31:35.704Z,15.15
2018-08-31T05:36:37.821Z,15.17
2018-08-31T05:41:40.714Z,15.20
2018-08-31T05:46:42.918Z,15.23
2018-08-31T05:51:45.078Z,15.27
2018-08-31T05:56:47.215Z,15.32
2018-08-31T06:01:49.332Z,15.43
2018-08-31T06:06:51.480Z,15.54
2018-08-31T06:11:53.662Z,15.61
2018-08-31T06:16:55.781Z,15.69
2018-08-31T06:21:57.907Z,15.80
2018-08-31T06:27:00.004Z,13.44
2018-08-31T06:32:02.595Z,16.04
2018-08-31T06:37:05.172Z,16.13
2018-08-31T06:42:07.329Z,16.20
2018-08-31T06:47:09.438Z,16.29
2018-08-31T06:52:11.604Z,16.40
2018-08-31T06:57:13.770Z,16.51
2018-08-31T07:02:15.905Z,16.57
2018-08-31T07:07:18.082Z,16.69
2018-08-31T07:12:20.283Z,16.76
2018-08-31T07:17:22.346Z,16.82
2018-08-31T07:22:24.503Z,16.92
2018-08-31T07:27:26.648Z,17.03
2018-08-31T07:32:28.825Z,17.24
2018-08-31T07:37:31.041Z,17.48
2018-08-31T07:42:33.118Z,17.51
2018-08-31T07:47:35.343Z,17.66
2018-08-31T07:52:37.483Z,17.82
2018-08-31T07:57:39.639Z,17.84
2018-08-31T08:02:41.799Z,17.84
2018-08-31T08:07:43.931Z,17.89
2018-08-31T08:12:46.279Z,17.76
2018-08-31T08:17:48.430Z,17.89
2018-08-31T08:22:50.562Z,18.13
2018-08-31T08:27:52.819Z,18.14
2018-08-31T08:32:54.966Z,18.05
2018-08-31T08:37:57.176Z,18.08
2018-08-31T08:42:59.422Z,18.16
2018-08-31T08:48:01.593Z,18.32
2018-08-31T08:53:04.090Z,18.40
2018-08-31T08:58:06.368Z,18.46
2018-08-31T09:03:08.527Z,18.43
2018-08-31T09:08:10.645Z,18.64
2018-08-31T09:13:12.787Z,18.65
2018-08-31T09:18:15.032Z,18.92
2018-08-31T09:23:17.174Z,18.96
2018-08-31T09:28:19.355Z,18.78
2018-08-31T09:33:21.550Z,18.85
2018-08-31T09:38:23.746Z,19.07
2018-08-31T09:43:25.921Z,19.37
2018-08-31T09:48:28.116Z,19.32
2018-08-31T09:53:30.306Z,18.96
2018-08-31T09:58:32.561Z,19.12
2018-08-31T10:03:34.687Z,19.41
2018-08-31T10:08:36.929Z,19.68
2018-08-31T10:13:39.108Z,19.77
2018-08-31T10:18:41.371Z,19.49
2018-08-31T10:23:43.451Z,19.45
2018-08-31T10:28:45.660Z,19.70
2018-08-31T10:33:47.799Z,20.05
2018-08-31T10:38:49.919Z,20.46
2018-08-31T10:43:52.127Z,20.46
2018-08-31T10:48:54.312Z,20.09
2018-08-31T10:53:56.511Z,20.39
2018-08-31T10:58:58.707Z,21.02
2018-08-31T11:04:00.839Z,21.30
2018-08-31T11:09:04.523Z,21.05
2018-08-31T11:14:06.672Z,21.37
2018-08-31T11:19:08.848Z,21.68
2018-08-31T11:24:11.017Z,22.04
2018-08-31T11:29:13.189Z,22.58
2018-08-31T11:34:15.312Z,22.72
2018-08-31T11:39:17.510Z,23.14
2018-08-31T11:44:19.663Z,23.47
2018-08-31T11:49:21.819Z,22.96
2018-08-31T11:54:24.012Z,23.08
2018-08-31T11:59:26.181Z,23.74
2018-08-31T12:04:28.360Z,24.38
2018-08-31T12:09:30.509Z,24.90
2018-08-31T12:14:32.657Z,25.33
2018-08-31T12:19:34.919Z,24.57
2018-08-31T12:24:37.146Z,23.84
2018-08-31T12:29:39.332Z,23.45
2018-08-31T12:34:41.509Z,24.37
2018-08-31T12:39:43.686Z,25.34
2018-08-31T12:44:45.826Z,26.00
2018-08-31T12:49:47.980Z,25.26
2018-08-31T12:54:50.214Z,24.22
2018-08-31T12:59:58.912Z,24.61
2018-08-31T13:05:01.596Z,25.66
2018-08-31T13:10:03.809Z,26.27
2018-08-31T13:15:06.073Z,27.11
2018-08-31T13:20:08.314Z,26.89
2018-08-31T13:25:10.546Z,25.83
2018-08-31T13:30:12.667Z,24.69
2018-08-31T13:35:14.852Z,23.80
2018-08-31T13:40:17.052Z,23.79
2018-08-31T13:45:19.240Z,23.87
2018-08-31T13:50:21.654Z,23.36
2018-08-31T13:55:24.203Z,23.10
2018-08-31T14:00:26.368Z,23.25
2018-08-31T14:05:28.575Z,24.69
2018-08-31T14:10:30.727Z,25.61
2018-08-31T14:15:32.911Z,25.29
2018-08-31T14:20:35.117Z,26.23
2018-08-31T14:25:37.486Z,26.42
2018-08-31T14:30:39.606Z,27.08
2018-08-31T14:35:41.859Z,27.88
2018-08-31T14:40:44.046Z,28.04
2018-08-31T14:45:46.226Z,26.56
2018-08-31T14:50:48.527Z,26.80
2018-08-31T14:55:50.819Z,27.58
2018-08-31T15:00:53.058Z,28.24
2018-08-31T15:05:55.234Z,28.63
2018-08-31T15:10:57.439Z,28.98
2018-08-31T15:15:59.624Z,29.26
2018-08-31T15:21:01.866Z,29.41
2018-08-31T15:26:04.096Z,28.05
2018-08-31T15:31:06.237Z,26.76
2018-08-31T15:36:08.425Z,26.72
2018-08-31T15:41:10.605Z,26.56
2018-08-31T15:46:12.767Z,26.06
2018-08-31T15:51:14.943Z,25.15
2018-08-31T15:56:17.151Z,24.46
2018-08-31T16:01:19.340Z,23.77
2018-08-31T16:06:21.503Z,23.22
2018-08-31T16:11:23.893Z,20.19
2018-08-31T16:16:26.079Z,22.40
2018-08-31T16:21:28.257Z,22.02
2018-08-31T16:26:30.516Z,21.80
2018-08-31T16:31:32.742Z,21.99
2018-08-31T16:36:34.935Z,22.25
2018-08-31T16:41:37.406Z,22.05
2018-08-31T16:46:39.600Z,21.83
2018-08-31T16:51:41.785Z,21.69
2018-08-31T16:56:44.032Z,21.66
2018-08-31T17:01:46.209Z,21.64
2018-08-31T17:06:48.378Z,21.60
2018-08-31T17:11:50.491Z,21.52
2018-08-31T17:16:52.689Z,21.36
2018-08-31T17:21:54.860Z,21.27
2018-08-31T17:27:03.068Z,21.22
2018-08-31T17:32:11.075Z,21.00
2018-08-31T17:37:19.090Z,20.92
2018-08-31T17:42:21.514Z,20.78
2018-08-31T17:47:23.738Z,20.70
2018-08-31T17:52:25.946Z,20.59
2018-08-31T17:57:28.219Z,20.54
2018-08-31T18:02:30.406Z,20.43
2018-08-31T18:07:33.451Z,20.35
2018-08-31T18:12:35.809Z,20.27
2018-08-31T18:17:38.022Z,20.20
2018-08-31T18:22:40.252Z,20.11
2018-08-31T18:27:42.451Z,20.03
2018-08-31T18:32:44.643Z,19.94
2018-08-31T18:37:47.048Z,19.86
2018-08-31T18:42:49.303Z,19.76
2018-08-31T18:47:51.575Z,19.72
2018-08-31T18:52:53.835Z,19.61
2018-08-31T18:57:56.223Z,19.55
2018-08-31T19:02:58.520Z,19.50
2018-08-31T19:08:01.426Z,19.51
2018-08-31T19:13:03.738Z,19.46
2018-08-31T19:18:06.023Z,19.49
2018-08-31T19:23:08.355Z,19.38
2018-08-31T19:28:10.596Z,19.27
2018-08-31T19:33:13.449Z,19.17
2018-08-31T19:38:15.703Z,19.08
2018-08-31T19:43:17.873Z,19.09
2018-08-31T19:48:20.162Z,19.00
2018-08-31T19:53:22.394Z,18.95
2018-08-31T19:58:24.639Z,18.92
2018-08-31T20:03:27.257Z,18.90
2018-08-31T20:08:30.144Z,18.78
2018-08-31T20:13:32.368Z,18.74
2018-08-31T20:18:34.884Z,18.71
2018-08-31T20:23:37.179Z,18.64
2018-08-31T20:28:39.392Z,18.63
2018-08-31T20:33:41.566Z,18.58
2018-08-31T20:38:44.190Z,18.59
2018-08-31T20:43:46.312Z,18.50
2018-08-31T20:48:48.466Z,18.48
2018-08-31T20:53:50.676Z,18.41
2018-08-31T20:58:52.847Z,18.32
2018-08-31T21:03:55.868Z,18.29
2018-08-31T21:08:58.071Z,18.23
2018-08-31T21:14:00.206Z,18.19
2018-08-31T21:19:02.504Z,18.13
2018-08-31T21:24:04.714Z,18.04
2018-08-31T21:29:06.904Z,18.01
2018-08-31T21:34:09.168Z,18.05
2018-08-31T21:39:11.340Z,18.01
2018-08-31T21:44:13.478Z,17.94
2018-08-31T21:49:15.700Z,17.83
2018-08-31T21:54:17.877Z,17.76
2018-08-31T21:59:20.083Z,17.75
2018-08-31T22:04:24.502Z,17.78
2018-08-31T22:09:27.415Z,17.70
2018-08-31T22:14:29.603Z,17.60
2018-08-31T22:19:31.771Z,17.60
2018-08-31T22:24:33.927Z,17.57
2018-08-31T22:29:36.071Z,17.51
2018-08-31T22:34:38.235Z,17.39
2018-08-31T22:39:40.355Z,17.36
2018-08-31T22:44:42.499Z,17.27
2018-08-31T22:49:44.619Z,17.25
2018-08-31T22:54:46.908Z,17.32
2018-08-31T22:59:49.068Z,17.35
2018-08-31T23:04:51.229Z,17.34
2018-08-31T23:09:53.412Z,17.29
2018-08-31T23:14:55.574Z,17.21
2018-08-31T23:19:58.571Z,17.23
2018-08-31T23:25:01.434Z,17.17
2018-08-31T23:30:03.687Z,17.16
2018-08-31T23:35:05.832Z,17.16
2018-08-31T23:40:08.043Z,17.15
2018-08-31T23:45:10.176Z,17.14
2018-08-31T23:50:12.482Z,17.11
2018-08-31T23:55:14.626Z,17.06
